Time;durP1;ratioP1;P1;durP2;ratioP2;P2;SDS_P1;SDS_P2;PMS_P1;PMS_P2;Temp;Humidity;BMP_temperature;BMP_pressure;BME280_temperature;BME280_humidity;BME280_pressure;Samples;Min_cycle;Max_cycle;Signal;HPM_P1;HPM_P2
2023/06/30 00:01:49;;;;;;;9.40;4.83;;;;;;;20.23;63.35;99100.00;1763376;80;21335;-80
2023/06/30 00:04:54;;;;;;;8.28;5.35;;;;;;;20.28;63.14;99094.47;1758788;81;21308;-80
2023/06/30 00:08:03;;;;;;;7.55;4.65;;;;;;;20.28;62.98;99093.95;1758873;81;21320;-79
2023/06/30 00:11:09;;;;;;;7.20;5.00;;;;;;;20.28;62.85;99098.64;1757604;81;21316;-80
2023/06/30 00:14:13;;;;;;;6.90;4.95;;;;;;;20.15;63.11;99096.64;1712730;84;21326;-80
2023/06/30 00:17:18;;;;;;;9.78;4.70;;;;;;;20.21;63.01;99091.95;1711916;84;21383;-79
2023/06/30 00:20:24;;;;;;;8.33;5.33;;;;;;;20.31;63.08;99089.78;1712235;84;21339;-80
2023/06/30 00:23:29;;;;;;;11.38;5.20;;;;;;;20.49;62.96;99092.69;1712680;84;21307;-80
2023/06/30 00:26:34;;;;;;;7.42;4.90;;;;;;;20.49;62.75;99086.58;1712676;84;21310;-80
2023/06/30 00:29:41;;;;;;;8.18;5.70;;;;;;;20.33;63.08;99089.81;1758864;81;21343;-79
2023/06/30 00:32:47;;;;;;;13.43;5.40;;;;;;;20.28;63.24;99093.09;1711819;84;21382;-79
2023/06/30 00:35:53;;;;;;;7.80;5.20;;;;;;;20.29;63.13;99082.28;1712743;84;21299;-80
2023/06/30 00:38:58;;;;;;;12.68;5.22;;;;;;;20.84;61.42;99086.42;1711322;84;21612;-79
2023/06/30 00:41:56;;;;;;;15.43;5.45;;;;;;;20.67;61.60;99093.05;1711348;84;21343;-79
2023/06/30 00:44:59;;;;;;;14.65;5.25;;;;;;;20.58;62.09;99100.78;1712775;84;22046;-79
2023/06/30 00:48:04;;;;;;;10.30;5.55;;;;;;;20.47;62.29;99100.44;1711832;84;21339;-79
2023/06/30 00:51:11;;;;;;;8.45;5.30;;;;;;;20.41;62.38;99102.33;1712099;84;21299;-79
2023/06/30 00:54:17;;;;;;;11.48;5.58;;;;;;;20.45;62.38;99097.91;1712858;84;21314;-79
2023/06/30 00:57:23;;;;;;;10.53;5.25;;;;;;;20.42;62.29;99090.97;1712663;84;21295;-79
2023/06/30 01:00:29;;;;;;;17.52;5.72;;;;;;;20.53;61.88;99075.20;1711304;84;21330;-79
2023/06/30 01:03:47;;;;;;;8.43;6.00;;;;;;;20.47;61.92;99074.05;1715560;83;21323;-79
2023/06/30 01:07:15;;;;;;;7.53;5.53;;;;;;;20.48;61.81;99077.97;1738769;82;21309;-79
2023/06/30 01:10:32;;;;;;;10.13;5.97;;;;;;;20.60;61.66;99076.33;1763547;81;21320;-79
2023/06/30 01:13:38;;;;;;;14.60;5.60;;;;;;;20.49;61.79;99072.69;1763566;81;21819;-79
2023/06/30 01:16:44;;;;;;;12.30;5.95;;;;;;;20.38;62.14;99072.34;1763557;81;21288;-80
2023/06/30 01:19:49;;;;;;;8.45;6.22;;;;;;;20.30;62.44;99070.07;1763555;81;21886;-79
2023/06/30 01:23:05;;;;;;;11.50;6.08;;;;;;;20.44;62.00;99071.25;1763606;81;21328;-79
2023/06/30 01:26:10;;;;;;;10.55;5.85;;;;;;;20.45;61.93;99081.24;1763505;81;21327;-79
2023/06/30 01:29:17;;;;;;;9.70;6.42;;;;;;;20.42;62.02;99081.25;1763550;81;21569;-79
2023/06/30 01:32:22;;;;;;;15.10;6.62;;;;;;;20.57;61.40;99083.84;1762415;81;21328;-80
2023/06/30 01:35:30;;;;;;;9.05;5.42;;;;;;;20.72;60.84;99075.55;1763468;81;21301;-79
2023/06/30 01:38:36;;;;;;;11.38;5.62;;;;;;;20.79;60.45;99080.28;1763600;81;21870;-79
2023/06/30 01:41:41;;;;;;;9.68;5.75;;;;;;;20.67;60.70;99086.09;1763012;81;21328;-79
2023/06/30 01:44:46;;;;;;;10.70;5.30;;;;;;;20.51;61.20;99090.45;1763758;80;21185;-78
2023/06/30 01:47:53;;;;;;;9.15;5.45;;;;;;;20.43;61.52;99084.86;1763652;81;21316;-79
2023/06/30 01:51:00;;;;;;;8.28;5.30;;;;;;;20.42;61.57;99087.36;1763686;81;21303;-79
2023/06/30 01:54:08;;;;;;;11.43;6.30;;;;;;;20.36;61.86;99082.86;1763614;81;21308;-79
2023/06/30 01:57:13;;;;;;;11.18;6.03;;;;;;;20.33;62.16;99078.70;1763630;81;21288;-79
2023/06/30 02:00:20;;;;;;;9.20;6.15;;;;;;;20.42;62.34;99074.86;1763875;81;21332;-80
2023/06/30 02:03:25;;;;;;;13.43;5.72;;;;;;;20.63;62.42;99071.08;1763110;81;21955;-80
2023/06/30 02:06:31;;;;;;;9.98;5.33;;;;;;;20.49;62.82;99069.91;1769253;81;21296;-79
2023/06/30 02:09:37;;;;;;;9.08;6.40;;;;;;;20.79;62.14;99067.78;1768133;81;21320;-80
2023/06/30 02:12:46;;;;;;;7.70;5.67;;;;;;;20.87;62.03;99067.81;1768349;81;21308;-80
2023/06/30 02:15:53;;;;;;;10.82;6.40;;;;;;;20.82;61.73;99067.25;1768407;81;21358;-80
2023/06/30 02:19:00;;;;;;;10.55;6.28;;;;;;;20.78;61.74;99059.73;1769302;81;21339;-79
2023/06/30 02:22:05;;;;;;;7.30;5.33;;;;;;;20.78;61.61;99070.84;1768891;81;21343;-80
2023/06/30 02:25:13;;;;;;;10.72;7.10;;;;;;;20.80;61.93;99070.04;1768116;81;21327;-80
2023/06/30 02:28:12;;;;;;;11.38;6.62;;;;;;;20.92;61.93;99072.00;1769317;81;21854;-80
2023/06/30 02:31:18;;;;;;;8.98;5.87;;;;;;;21.27;61.47;99077.36;1769548;81;21288;-80
2023/06/30 02:34:24;;;;;;;9.60;6.42;;;;;;;21.35;61.48;99074.05;1769351;81;21292;-79
2023/06/30 02:37:30;;;;;;;9.60;6.28;;;;;;;21.48;61.54;99076.28;1769191;81;21296;-80
2023/06/30 02:40:36;;;;;;;15.53;7.25;;;;;;;21.81;61.39;99074.05;1767864;81;21296;-80
2023/06/30 02:43:43;;;;;;;10.82;7.45;;;;;;;22.13;60.75;99071.80;1768060;81;21331;-80
2023/06/30 02:46:50;;;;;;;14.23;6.55;;;;;;;22.68;60.88;99076.08;1769333;81;21291;-80
2023/06/30 02:49:56;;;;;;;10.05;6.15;;;;;;;23.20;59.95;99075.53;1769373;81;21315;-80
2023/06/30 02:53:06;;;;;;;10.50;5.87;;;;;;;23.57;58.27;99076.95;1768313;81;21299;-80
2023/06/30 02:56:12;;;;;;;9.85;7.03;;;;;;;23.49;57.92;99069.19;1769314;81;21260;-80
2023/06/30 02:59:13;;;;;;;11.10;6.62;;;;;;;23.55;56.83;99074.98;1769468;81;21668;-79
2023/06/30 03:02:17;;;;;;;13.78;6.03;;;;;;;23.48;56.73;99075.90;1769141;81;21347;-80
2023/06/30 03:05:23;;;;;;;8.25;5.83;;;;;;;23.59;57.04;99082.23;1768849;80;21359;-80
2023/06/30 03:08:30;;;;;;;7.70;5.80;;;;;;;24.18;56.63;99092.30;1763865;81;21313;-81
2023/06/30 03:11:38;;;;;;;8.05;5.70;;;;;;;24.99;55.11;99082.98;1763648;81;21843;-80
2023/06/30 03:14:45;;;;;;;9.13;6.05;;;;;;;25.76;52.70;99088.02;1763438;81;21332;-80
2023/06/30 03:17:51;;;;;;;8.13;5.72;;;;;;;26.23;51.13;99085.48;1762186;81;21839;-80
2023/06/30 03:20:57;;;;;;;9.30;5.90;;;;;;;26.56;50.11;99093.84;1762325;81;21319;-80
2023/06/30 03:24:03;;;;;;;7.62;5.80;;;;;;;27.26;47.95;99092.91;1762174;81;21371;-80
2023/06/30 03:27:08;;;;;;;15.20;5.60;;;;;;;27.41;47.02;99086.67;1763407;81;21289;-81
2023/06/30 03:30:16;;;;;;;9.20;5.65;;;;;;;27.74;45.64;99090.94;1763564;81;21297;-80
2023/06/30 03:33:22;;;;;;;10.85;5.80;;;;;;;27.59;45.54;99090.46;1763071;81;21296;-80
2023/06/30 03:36:28;;;;;;;9.70;6.25;;;;;;;27.79;45.16;99101.79;1763665;81;21327;-81
2023/06/30 03:39:33;;;;;;;12.35;5.80;;;;;;;27.72;45.31;99098.03;1763558;81;21906;-81
2023/06/30 03:42:39;;;;;;;16.37;6.35;;;;;;;27.86;45.06;99097.97;1763584;81;21296;-81
2023/06/30 03:45:45;;;;;;;7.10;5.25;;;;;;;27.94;44.63;99102.80;1763609;81;21300;-81
2023/06/30 03:48:51;;;;;;;8.33;6.00;;;;;;;28.00;44.36;99098.73;1763777;81;21323;-81
2023/06/30 03:51:57;;;;;;;11.05;5.67;;;;;;;27.91;44.42;99101.48;1763705;81;21296;-80
2023/06/30 03:55:04;;;;;;;8.38;6.03;;;;;;;28.07;43.88;99089.25;1763368;81;21312;-81
2023/06/30 03:58:11;;;;;;;7.10;5.20;;;;;;;28.40;42.83;99091.19;1763600;81;21312;-80
2023/06/30 04:01:16;;;;;;;7.70;5.65;;;;;;;28.01;43.66;99084.34;1763660;81;21319;-81
2023/06/30 04:04:24;;;;;;;15.98;6.60;;;;;;;27.80;43.89;99088.82;1762406;81;21375;-81
2023/06/30 04:07:32;;;;;;;10.80;6.15;;;;;;;28.07;43.72;99089.25;1763547;80;21687;-81
2023/06/30 04:10:37;;;;;;;13.43;5.62;;;;;;;28.04;43.55;99087.07;1763092;81;21323;-81
2023/06/30 04:13:43;;;;;;;8.60;6.00;;;;;;;28.07;43.26;99090.66;1763237;81;21315;-80
2023/06/30 04:16:48;;;;;;;8.95;6.05;;;;;;;27.94;43.44;99091.56;1763451;81;21327;-80
2023/06/30 04:19:58;;;;;;;9.75;5.90;;;;;;;27.73;44.15;99092.09;1763674;81;21319;-81
2023/06/30 04:23:04;;;;;;;8.20;5.20;;;;;;;27.71;44.25;99088.78;1762263;81;21288;-81
2023/06/30 04:26:10;;;;;;;9.33;6.05;;;;;;;27.76;44.02;99096.25;1762825;81;21308;-80
2023/06/30 04:29:16;;;;;;;9.18;5.33;;;;;;;27.50;44.43;99084.77;1762214;81;21919;-81
2023/06/30 04:32:21;;;;;;;20.95;6.80;;;;;;;27.49;44.77;99087.33;1763600;81;21296;-81
2023/06/30 04:35:28;;;;;;;10.18;6.17;;;;;;;26.78;46.37;99086.12;1762640;81;21332;-80
2023/06/30 04:38:37;;;;;;;6.78;5.03;;;;;;;27.34;45.24;99094.14;1763565;81;21299;-81
2023/06/30 04:41:44;;;;;;;6.97;5.20;;;;;;;27.46;45.05;99089.36;1762739;81;21336;-81
2023/06/30 04:44:51;;;;;;;9.90;5.70;;;;;;;27.74;44.61;99097.12;1762815;81;21327;-80
2023/06/30 04:47:57;;;;;;;8.05;5.10;;;;;;;27.70;44.67;99092.69;1763730;81;21299;-81
2023/06/30 04:51:02;;;;;;;6.12;5.12;;;;;;;28.02;44.33;99091.62;1763628;81;21304;-80
2023/06/30 04:54:09;;;;;;;10.90;5.22;;;;;;;28.24;43.88;99094.98;1763359;81;21296;-81
2023/06/30 04:57:15;;;;;;;14.78;5.47;;;;;;;28.12;43.47;99092.50;1762576;81;21894;-81
2023/06/30 05:00:22;;;;;;;10.03;4.97;;;;;;;28.13;43.94;99100.60;1763785;81;21847;-81
2023/06/30 05:03:28;;;;;;;10.68;5.80;;;;;;;28.01;44.79;99096.17;1763618;81;21875;-81
2023/06/30 05:06:33;;;;;;;6.65;5.33;;;;;;;28.07;44.51;99097.69;1763398;81;21879;-80
2023/06/30 05:09:39;;;;;;;8.25;5.50;;;;;;;28.22;44.14;99109.09;1762074;80;21328;-81
2023/06/30 05:12:48;;;;;;;6.75;4.80;;;;;;;28.43;43.81;99101.80;1762394;81;21978;-81
2023/06/30 05:15:53;;;;;;;10.88;5.30;;;;;;;28.38;43.29;99108.15;1762509;81;21319;-80
2023/06/30 05:18:59;;;;;;;9.45;4.92;;;;;;;28.48;42.78;99114.31;1763769;81;21316;-81
2023/06/30 05:22:05;;;;;;;6.12;4.95;;;;;;;28.33;43.32;99113.30;1763621;81;21287;-81
2023/06/30 05:25:10;;;;;;;7.87;4.62;;;;;;;28.72;42.19;99115.32;1762938;81;21913;-81
2023/06/30 05:28:17;;;;;;;7.10;4.08;;;;;;;28.83;42.47;99112.20;1762254;81;21351;-80
2023/06/30 05:31:23;;;;;;;10.98;4.47;;;;;;;29.07;41.29;99108.98;1763825;81;21311;-81
2023/06/30 05:34:30;;;;;;;7.95;4.58;;;;;;;28.72;42.01;99112.51;1762349;81;21327;-81
2023/06/30 05:37:37;;;;;;;6.45;4.70;;;;;;;28.92;41.83;99104.03;1763898;81;21308;-81
2023/06/30 05:40:42;;;;;;;14.95;4.75;;;;;;;28.88;41.45;99112.88;1762556;81;21304;-81
2023/06/30 05:43:48;;;;;;;8.53;4.55;;;;;;;29.27;41.45;99116.24;1762519;81;21899;-80
2023/06/30 05:46:54;;;;;;;8.43;4.62;;;;;;;29.61;41.16;99107.59;1762932;81;21293;-80
2023/06/30 05:50:03;;;;;;;8.88;4.53;;;;;;;29.70;40.49;99114.64;1763238;81;21866;-81
2023/06/30 05:53:10;;;;;;;5.90;4.15;;;;;;;29.70;39.88;99111.23;1744509;81;21299;-80
2023/06/30 05:56:18;;;;;;;14.20;4.00;;;;;;;29.51;40.19;99107.90;1723276;81;21292;-81
2023/06/30 05:59:27;;;;;;;11.90;4.42;;;;;;;29.35;39.82;99110.94;1723428;81;21308;-81
2023/06/30 06:02:31;;;;;;;8.40;4.05;;;;;;;29.18;40.21;99099.91;1763676;81;21336;-80
2023/06/30 06:05:37;;;;;;;3.80;3.33;;;;;;;29.33;40.27;99100.59;1763610;81;21355;-81
2023/06/30 06:08:48;;;;;;;8.78;3.80;;;;;;;29.59;39.30;99104.27;1764573;80;21319;-80
2023/06/30 06:11:55;;;;;;;6.78;4.35;;;;;;;29.62;39.44;99092.92;1759212;81;21284;-81
2023/06/30 06:15:01;;;;;;;5.83;3.92;;;;;;;29.67;39.43;99103.44;1713132;84;21322;-81
2023/06/30 06:18:07;;;;;;;7.33;3.90;;;;;;;29.49;39.06;99099.76;1712606;84;21373;-80
2023/06/30 06:21:13;;;;;;;6.03;3.80;;;;;;;29.55;39.99;99094.84;1713303;84;21315;-81
2023/06/30 06:24:18;;;;;;;5.40;3.47;;;;;;;29.51;39.27;99097.45;1713258;84;21617;-81
2023/06/30 06:27:17;;;;;;;7.90;4.10;;;;;;;29.61;39.00;99090.69;1713530;84;21287;-81
2023/06/30 06:30:22;;;;;;;7.55;4.83;;;;;;;29.68;38.93;99093.82;1713300;84;21295;-80
2023/06/30 06:33:30;;;;;;;7.22;4.50;;;;;;;29.71;39.47;99090.34;1712453;84;21902;-81
2023/06/30 06:36:36;;;;;;;11.40;4.20;;;;;;;30.09;39.89;99098.66;1712454;84;21310;-81
2023/06/30 06:39:42;;;;;;;6.25;4.53;;;;;;;30.74;38.93;99096.09;1713256;84;21291;-81
2023/06/30 06:42:50;;;;;;;5.55;4.15;;;;;;;30.91;38.66;99097.98;1713045;84;21315;-81
2023/06/30 07:00:06;;;;;;;10.13;3.33;;;;;;;31.95;34.93;99087.36;1819257;76;28620;-80
2023/06/30 07:03:11;;;;;;;4.30;3.60;;;;;;;32.19;34.53;99083.19;1772393;79;21265;-82
2023/06/30 07:06:16;;;;;;;10.10;4.55;;;;;;;32.14;34.06;99089.06;1771847;80;21633;-82
2023/06/30 07:09:24;;;;;;;6.20;4.25;;;;;;;32.24;34.72;99084.38;1762907;80;21324;-82
2023/06/30 07:12:30;;;;;;;4.08;3.62;;;;;;;32.19;34.68;99081.77;1775282;80;21267;-82
2023/06/30 07:15:35;;;;;;;3.95;3.50;;;;;;;31.92;34.39;99085.22;1789508;80;21271;-82
2023/06/30 07:18:42;;;;;;;5.47;3.60;;;;;;;31.88;34.08;99085.08;1790922;79;21284;-82
2023/06/30 07:21:48;;;;;;;5.75;3.60;;;;;;;32.24;33.74;99084.38;1782404;80;21236;-82
2023/06/30 07:24:53;;;;;;;4.03;2.98;;;;;;;32.60;33.41;99091.88;1763522;79;21916;-82
2023/06/30 07:28:01;;;;;;;6.22;3.85;;;;;;;32.62;33.54;99093.19;1760040;81;21348;-82
2023/06/30 07:31:00;;;;;;;7.83;3.52;;;;;;;32.71;33.21;99086.00;1760234;81;21270;-82
2023/06/30 07:33:53;;;;;;;6.45;3.85;;;;;;;32.40;31.89;99075.23;1760125;81;21308;-82
2023/06/30 07:36:41;;;;;;;4.85;3.40;;;;;;;31.93;33.78;99076.97;1760063;81;21277;-82
2023/06/30 07:39:33;;;;;;;5.65;3.37;;;;;;;31.76;33.00;99073.13;1758909;81;21340;-81
2023/06/30 07:42:19;;;;;;;4.12;3.60;;;;;;;31.65;33.81;99078.94;1758838;81;21312;-82
2023/06/30 07:45:17;;;;;;;5.75;3.33;;;;;;;31.56;34.09;99067.71;1758634;81;21297;-82
2023/06/30 07:48:22;;;;;;;8.70;3.55;;;;;;;31.30;34.09;99075.00;1759883;81;21272;-82
2023/06/30 07:51:29;;;;;;;6.40;3.67;;;;;;;31.26;34.28;99076.00;1760175;81;21300;-82
2023/06/30 07:54:34;;;;;;;7.42;3.60;;;;;;;31.32;34.56;99071.83;1760159;81;21308;-82
2023/06/30 07:57:39;;;;;;;5.80;3.08;;;;;;;31.25;35.19;99074.36;1759989;81;21264;-82
2023/06/30 08:00:46;;;;;;;7.72;3.60;;;;;;;31.21;33.39;99071.97;1757588;80;21309;-81
2023/06/30 08:03:52;;;;;;;11.38;3.80;;;;;;;31.26;33.56;99068.36;1757754;81;21304;-81
2023/06/30 08:06:58;;;;;;;5.28;3.42;;;;;;;31.41;33.99;99076.83;1757739;81;21853;-81
2023/06/30 08:13:22;;;;;;;4.97;2.95;;;;;;;31.36;33.65;99071.97;1852970;76;22760;-80
2023/06/30 08:16:28;;;;;;;7.40;3.65;;;;;;;31.34;33.64;99077.98;1786016;80;21275;-82
2023/06/30 08:19:37;;;;;;;4.72;3.70;;;;;;;31.46;32.96;99067.31;1785234;79;21293;-81
2023/06/30 08:22:43;;;;;;;10.83;3.20;;;;;;;31.55;32.99;99069.48;1785189;80;21276;-81
2023/06/30 08:25:49;;;;;;;5.20;3.70;;;;;;;31.69;32.99;99072.84;1785965;80;21840;-81
2023/06/30 08:28:55;;;;;;;3.40;2.92;;;;;;;31.71;32.12;99077.58;1785532;79;21308;-81
2023/06/30 08:32:00;;;;;;;4.50;3.15;;;;;;;31.67;31.79;99065.91;1785485;80;21911;-81
2023/06/30 08:34:58;;;;;;;8.33;3.30;;;;;;;31.85;31.72;99077.28;1784395;79;21682;-81
2023/06/30 08:38:04;;;;;;;4.20;3.12;;;;;;;31.92;31.55;99073.91;1785944;79;21871;-82
2023/06/30 08:41:09;;;;;;;6.72;3.37;;;;;;;31.87;30.27;99060.81;1785843;80;21300;-81
2023/06/30 08:44:15;;;;;;;7.83;3.45;;;;;;;31.89;31.70;99071.77;1785309;79;21292;-81
2023/06/30 08:47:21;;;;;;;8.05;3.72;;;;;;;31.94;31.76;99068.72;1785933;80;21601;-80
2023/06/30 08:50:29;;;;;;;5.22;3.52;;;;;;;32.05;31.17;99067.95;1783489;80;21295;-81
2023/06/30 08:53:36;;;;;;;5.92;3.10;;;;;;;31.92;31.38;99059.77;1730211;83;21302;-80
2023/06/30 08:56:43;;;;;;;8.58;3.12;;;;;;;32.08;30.76;99066.99;1731449;83;21282;-81
2023/06/30 08:59:52;;;;;;;4.35;3.17;;;;;;;32.11;30.54;99065.72;1730127;83;21377;-81
2023/06/30 09:02:58;;;;;;;5.62;3.08;;;;;;;32.03;31.30;99058.14;1730062;82;21870;-80
2023/06/30 09:06:06;;;;;;;3.27;2.98;;;;;;;32.12;30.58;99073.02;1739875;80;21828;-82
2023/06/30 09:09:20;;;;;;;6.67;3.42;;;;;;;32.28;30.24;99060.46;1747617;82;21330;-81
2023/06/30 09:12:23;;;;;;;4.03;3.10;;;;;;;32.37;28.87;99065.45;1748998;82;21274;-82
2023/06/30 09:15:28;;;;;;;4.67;2.92;;;;;;;32.56;29.94;99057.81;1749477;82;21196;-81
2023/06/30 09:18:34;;;;;;;3.35;3.00;;;;;;;32.52;29.22;99068.19;1749508;82;21180;-82
2023/06/30 09:21:41;;;;;;;5.87;3.17;;;;;;;32.38;30.11;99061.45;1771068;80;21311;-82
2023/06/30 09:24:47;;;;;;;8.38;3.10;;;;;;;32.33;29.92;99061.64;1782698;79;21311;-81
2023/06/30 09:27:54;;;;;;;11.55;3.37;;;;;;;32.36;29.99;99062.34;1783614;80;21323;-81
2023/06/30 09:30:58;;;;;;;3.60;3.10;;;;;;;32.52;29.45;99061.11;1784152;80;21272;-81
2023/06/30 09:34:19;;;;;;;5.53;4.03;;;;;;;32.36;29.40;99070.83;1774883;80;21270;-81
2023/06/30 09:37:25;;;;;;;6.72;3.55;;;;;;;32.38;28.35;99059.20;1754774;82;21784;-81
2023/06/30 09:40:34;;;;;;;5.03;3.17;;;;;;;32.30;29.33;99058.09;1754726;82;22162;-81
2023/06/30 09:43:40;;;;;;;5.17;3.50;;;;;;;32.43;29.95;99048.48;1753941;82;21486;-81
2023/06/30 09:46:56;;;;;;;5.62;3.83;;;;;;;32.68;30.00;99054.97;1754352;82;21302;-81
2023/06/30 09:50:03;;;;;;;10.30;3.42;;;;;;;32.54;29.38;99053.08;1749785;80;21858;-81
2023/06/30 09:53:09;;;;;;;5.10;3.67;;;;;;;32.55;29.39;99048.47;1748539;82;21303;-81
2023/06/30 09:56:17;;;;;;;7.35;3.70;;;;;;;32.57;30.18;99029.74;1748971;82;21831;-81
2023/06/30 09:59:23;;;;;;;9.05;3.70;;;;;;;32.82;30.70;99050.36;1726849;82;21323;-81
2023/06/30 10:02:28;;;;;;;8.20;3.98;;;;;;;32.86;29.71;99049.07;1749179;82;21290;-82
2023/06/30 10:05:36;;;;;;;6.85;3.58;;;;;;;32.79;29.81;99044.84;1749398;80;21220;-80
2023/06/30 10:08:42;;;;;;;11.25;3.98;;;;;;;32.79;30.97;99040.59;1748826;82;21317;-80
2023/06/30 10:11:48;;;;;;;8.10;3.83;;;;;;;32.92;29.92;99040.59;1749236;82;21291;-79
2023/06/30 10:14:54;;;;;;;4.75;3.80;;;;;;;33.13;30.43;99044.70;1737733;82;21311;-79
2023/06/30 10:18:03;;;;;;;8.30;3.60;;;;;;;33.07;29.85;99035.61;1735329;82;21264;-81
2023/06/30 10:21:08;;;;;;;8.28;3.50;;;;;;;33.18;29.75;99035.36;1735388;82;21871;-81
2023/06/30 10:24:14;;;;;;;7.17;3.70;;;;;;;33.25;30.00;99046.89;1657579;85;21320;-80
2023/06/30 10:27:20;;;;;;;7.50;3.30;;;;;;;33.48;29.98;99040.73;1735302;82;21296;-80
2023/06/30 10:30:27;;;;;;;5.37;3.80;;;;;;;33.38;29.40;99042.63;1735427;82;21260;-80
2023/06/30 10:33:34;;;;;;;6.37;3.47;;;;;;;33.08;29.71;99028.78;1736358;81;21311;-81
2023/06/30 10:36:41;;;;;;;5.12;3.27;;;;;;;32.96;29.93;99040.12;1771856;81;21295;-80
2023/06/30 10:39:47;;;;;;;12.05;3.67;;;;;;;32.86;30.17;99036.33;1770921;81;21927;-80
2023/06/30 10:54:39;;;;;;;3.90;2.98;;;;;;;33.17;28.82;99034.28;1811603;77;28128;-83
2023/06/30 10:57:45;;;;;;;5.70;3.50;;;;;;;33.14;28.90;99035.02;1792940;77;21334;-82
2023/06/30 11:01:16;;;;;;;3.62;3.20;;;;;;;33.14;28.90;99035.02;1818177;77;21318;-82
2023/06/30 11:04:22;;;;;;;4.95;3.30;;;;;;;32.74;30.25;99038.56;1790400;78;21303;-82
2023/06/30 11:07:37;;;;;;;4.70;3.08;;;;;;;32.78;29.81;99039.52;1820747;77;21376;-83
2023/06/30 11:10:54;;;;;;;12.50;3.70;;;;;;;32.70;29.69;99020.07;1826219;77;21330;-80
2023/06/30 11:14:13;;;;;;;4.55;3.45;;;;;;;32.72;29.19;99031.85;1828949;76;21837;-81
2023/06/30 11:17:19;;;;;;;6.67;3.25;;;;;;;32.24;30.50;99010.83;1791020;76;21893;-81
2023/06/30 11:20:27;;;;;;;6.78;3.98;;;;;;;32.61;30.73;99029.27;1754494;78;21271;-81
2023/06/30 11:23:35;;;;;;;5.05;3.60;;;;;;;32.97;30.78;99021.34;1766348;80;21855;-82
2023/06/30 11:26:45;;;;;;;8.85;3.47;;;;;;;33.16;30.29;99027.80;1784566;79;21843;-83
2023/06/30 11:29:55;;;;;;;5.30;3.40;;;;;;;32.91;29.74;99021.95;1779116;78;21270;-83
2023/06/30 11:33:05;;;;;;;4.40;3.80;;;;;;;32.31;30.53;99026.61;1801399;77;21346;-83
2023/06/30 11:36:12;;;;;;;5.60;3.77;;;;;;;32.60;30.52;99021.94;1826051;76;21342;-83
2023/06/30 11:39:17;;;;;;;3.87;3.40;;;;;;;32.60;30.56;99017.69;1752189;80;21850;-83
2023/06/30 11:42:26;;;;;;;5.28;3.12;;;;;;;32.67;30.62;99016.52;1791384;78;21913;-81
2023/06/30 11:45:35;;;;;;;4.05;3.45;;;;;;;32.85;30.07;99018.52;1799472;77;21315;-81
2023/06/30 11:48:47;;;;;;;7.65;3.92;;;;;;;32.48;29.23;99028.44;1809410;77;21278;-81
2023/06/30 11:51:54;;;;;;;18.37;3.72;;;;;;;32.44;29.92;99032.33;1809501;77;21370;-80
2023/06/30 11:55:02;;;;;;;12.35;3.80;;;;;;;31.85;31.14;99018.50;1803973;77;21293;-81
2023/06/30 11:58:08;;;;;;;5.78;3.58;;;;;;;32.24;31.02;99019.91;1808374;77;21283;-81
2023/06/30 12:01:16;;;;;;;5.25;3.87;;;;;;;32.15;31.18;99021.42;1808323;76;21290;-81
2023/06/30 12:04:26;;;;;;;6.53;4.10;;;;;;;32.06;31.75;99022.11;1765200;78;21288;-80
2023/06/30 12:07:33;;;;;;;9.30;3.67;;;;;;;32.18;32.71;99018.46;1810571;76;21300;-80
2023/06/30 12:10:45;;;;;;;6.83;3.45;;;;;;;32.33;32.72;99015.56;1783509;78;21792;-80
2023/06/30 12:13:52;;;;;;;10.88;3.72;;;;;;;32.58;32.06;99010.75;1782677;79;21246;-81
2023/06/30 12:16:58;;;;;;;6.15;3.87;;;;;;;32.46;32.41;99007.31;1813791;79;21812;-80
2023/06/30 12:20:04;;;;;;;7.12;3.70;;;;;;;32.70;32.10;98992.33;1842007;78;21273;-82
2023/06/30 12:23:13;;;;;;;6.40;4.12;;;;;;;32.95;31.43;98996.00;1841281;78;21309;-81
2023/06/30 12:26:19;;;;;;;11.43;4.10;;;;;;;32.88;31.23;98993.72;1841592;78;21253;-80
2023/06/30 12:29:30;;;;;;;7.65;3.95;;;;;;;32.91;31.65;98986.56;1840441;78;21293;-80
2023/06/30 12:32:34;;;;;;;9.13;4.05;;;;;;;32.83;31.40;98986.30;1841501;78;21325;-80
2023/06/30 12:35:42;;;;;;;8.80;3.80;;;;;;;33.21;31.30;98998.39;1841864;78;21260;-80
2023/06/30 12:38:49;;;;;;;4.72;3.70;;;;;;;32.99;30.95;98984.19;1841887;78;21818;-80
2023/06/30 12:41:55;;;;;;;4.10;3.70;;;;;;;32.98;31.20;98976.86;1841884;78;21241;-81
2023/06/30 12:45:00;;;;;;;4.90;3.35;;;;;;;32.74;31.78;98977.70;1840211;78;21373;-80
2023/06/30 12:48:05;;;;;;;7.33;3.72;;;;;;;32.74;31.78;98977.70;1841391;78;21305;-82
2023/06/30 12:51:12;;;;;;;7.78;4.10;;;;;;;32.66;31.94;98977.27;1835970;78;21138;-82
2023/06/30 12:54:17;;;;;;;3.85;3.45;;;;;;;32.60;32.16;98975.23;1833465;77;21839;-81
2023/06/30 12:57:23;;;;;;;6.47;3.80;;;;;;;32.60;32.55;98965.33;1825860;77;21272;-82
2023/06/30 13:00:29;;;;;;;25.20;5.12;;;;;;;32.45;32.71;98977.38;1823262;78;22161;-82
2023/06/30 13:03:36;;;;;;;9.53;5.45;;;;;;;32.48;36.53;99008.63;1818491;77;21302;-82
2023/06/30 13:06:42;;;;;;;14.95;6.10;;;;;;;31.41;40.27;99013.84;1829668;78;21287;-80
2023/06/30 13:09:48;;;;;;;9.03;5.45;;;;;;;30.11;42.93;99037.94;1797429;79;21302;-81
2023/06/30 13:12:55;;;;;;;26.42;6.55;;;;;;;28.52;46.59;99063.30;1837678;77;21762;-82
2023/06/30 13:15:58;;;;;;;12.73;5.62;;;;;;;27.62;50.07;99062.58;1835469;78;21285;-82
2023/06/30 13:19:05;;;;;;;20.77;6.40;;;;;;;26.84;51.42;99046.98;1812670;78;21262;-82
2023/06/30 13:22:11;;;;;;;15.10;5.87;;;;;;;26.05;53.87;99040.98;1820932;78;21302;-81
2023/06/30 13:25:18;;;;;;;16.77;6.37;;;;;;;25.75;54.69;99052.16;1796111;79;21904;-82
2023/06/30 14:12:20;;;;;;;6.90;4.92;;;;;;;21.68;94.10;98978.88;1809871;79;28171;-81
2023/06/30 14:15:26;;;;;;;9.48;5.50;;;;;;;22.26;92.19;98988.22;1785085;80;21334;-80
2023/06/30 14:18:32;;;;;;;6.08;4.60;;;;;;;22.47;91.15;98986.16;1784735;80;21307;-80
2023/06/30 14:21:38;;;;;;;6.85;4.72;;;;;;;22.83;89.67;98981.78;1783473;80;21695;-80
2023/06/30 14:24:45;;;;;;;10.08;5.12;;;;;;;23.05;86.86;98982.76;1784821;80;21299;-80
2023/06/30 14:27:51;;;;;;;10.40;4.70;;;;;;;22.88;87.74;98985.93;1784897;80;21306;-80
2023/06/30 14:30:58;;;;;;;12.20;5.25;;;;;;;23.03;88.03;98987.80;1784192;80;21275;-80
2023/06/30 14:34:03;;;;;;;7.80;5.62;;;;;;;23.25;87.23;98983.19;1784919;80;21291;-80
2023/06/30 14:37:09;;;;;;;11.45;5.97;;;;;;;23.68;85.87;98975.27;1783476;80;21314;-80
2023/06/30 14:40:15;;;;;;;6.08;5.08;;;;;;;24.01;86.12;98969.88;1783479;80;21342;-80
2023/06/30 14:43:23;;;;;;;8.43;6.08;;;;;;;24.20;86.51;98965.18;1783426;80;21331;-79
2023/06/30 14:46:21;;;;;;;12.30;5.72;;;;;;;24.17;85.33;98964.37;1784011;80;21306;-79
2023/06/30 14:49:26;;;;;;;9.80;6.15;;;;;;;24.41;84.18;98969.95;1784791;80;21895;-79
2023/06/30 14:52:31;;;;;;;11.22;5.78;;;;;;;24.41;82.91;98983.10;1784816;80;21354;-79
2023/06/30 14:55:36;;;;;;;16.85;6.58;;;;;;;24.34;82.74;98991.83;1784839;80;21295;-79
2023/06/30 14:58:43;;;;;;;12.63;5.92;;;;;;;24.12;83.52;98987.34;1784956;80;21330;-79
2023/06/30 15:01:49;;;;;;;11.30;6.15;;;;;;;24.01;83.73;98995.02;1779068;80;21353;-80
2023/06/30 15:04:56;;;;;;;14.30;5.97;;;;;;;23.84;84.14;98991.28;1785056;80;21301;-80
2023/06/30 15:08:03;;;;;;;11.00;5.85;;;;;;;23.90;84.10;98997.64;1784827;80;22151;-79
2023/06/30 15:11:08;;;;;;;8.75;5.83;;;;;;;23.78;85.64;98993.87;1784574;80;21292;-79
2023/06/30 15:14:13;;;;;;;7.28;5.47;;;;;;;23.75;84.16;98997.80;1784400;80;21851;-79
2023/06/30 15:17:18;;;;;;;10.40;5.55;;;;;;;24.07;81.37;98999.41;1784539;80;21308;-79
2023/06/30 15:20:23;;;;;;;9.10;5.50;;;;;;;23.89;80.38;98994.58;1785048;80;21269;-80
2023/06/30 15:23:30;;;;;;;11.68;5.47;;;;;;;23.93;79.37;98996.48;1784395;80;21316;-80
2023/06/30 15:26:36;;;;;;;8.45;5.87;;;;;;;23.79;79.00;98997.48;1784229;80;21925;-80
2023/06/30 15:29:35;;;;;;;8.53;5.30;;;;;;;23.69;78.58;99010.42;1784329;80;21308;-79
2023/06/30 15:32:41;;;;;;;9.00;5.87;;;;;;;23.70;77.69;99009.28;1782882;80;21307;-80
2023/06/30 15:35:47;;;;;;;7.60;5.80;;;;;;;24.24;75.04;99018.50;1782746;80;21311;-80
2023/06/30 15:38:55;;;;;;;11.50;5.40;;;;;;;24.39;72.84;99028.13;1782742;80;21308;-80
2023/06/30 15:42:01;;;;;;;8.38;5.50;;;;;;;24.46;71.75;99051.50;1783904;80;21340;-80
2023/06/30 15:45:07;;;;;;;6.37;4.87;;;;;;;24.48;71.54;99047.86;1784359;80;21293;-80
2023/06/30 15:48:15;;;;;;;6.87;4.65;;;;;;;24.52;70.93;99041.95;1784351;80;21852;-79